Tiempo atmosférico en la estación meteorológica de Antequera, Málaga (400 m.)



Fecha
DESCASC
Temp. máxima en grados centígrados (hora)
DESCASC
Temp. mínima en grados centígrados (hora)
DESCASC
Temp. media en grados centígrados
DESCASC
Racha de viento máxima en m/sg (hora)
DESCASC
Velocidad máxima media en intervalos de 10 minutos(hora)
DESCASC
Precipitaciones diarias en mm
DESCASC
Precipitaciones de 00:00 a 06:00 en mm
DESCASC
Precipitaciones de 06:00 a 12:00 en mm
DESCASC
Precipitaciones de 12:00 a 18:00 en mm
DESCASC
Precipitaciones de 18:00 a 24:00 en mm
DESCASC
23-06-2019 29.9 (18:10) 17.3 (07:50) 23.6 8.89 (16:30) 4.72 (15:30) 0 0 0 0 0
22-06-2019 29.3 (18:10) 15 (03:50) 22.1 10.28 (16:10) 5.28 (15:30) 0 0 0 0 0
21-06-2019 29.6 (17:00) 13.4 (07:30) 21.5 6.94 (17:20) 3.06 (14:50) 0 0 0 0 0
20-06-2019 27.4 (17:30) 13.7 (00:00) 20.5 8.61 (14:50) 4.17 (19:20) 0 0 0 0 0
19-06-2019 28.8 (18:30) 14.9 (00:00) 21.8 6.94 (15:20) 3.06 (22:40) 0 0 0 0 0
18-06-2019 29.5 (17:20) 13.7 (00:00) 21.6 8.06 (14:00) 3.89 (19:10) 0 0 0 0 0
17-06-2019 29.5 (17:00) 11 (00:00) 20.3 9.17 (18:50) 5 (18:40) 0 0 0 0 0
16-06-2019 26.3 (17:30) 12.3 (00:00) 19.3 11.67 (16:50) 6.11 (19:10) 0 0 0 0 0
15-06-2019 28.1 (19:00) 10.1 (00:00) 19.1 8.33 (14:20) 2.78 (14:30) 0 0 0 0 0
14-06-2019 23.6 (17:00) 14.5 (00:00) 19.1 10.28 (16:50) 4.17 (17:40) 0 0 0 0 0
13-06-2019 26 (17:50) 14.7 (00:00) 20.3 10.28 (01:30) 5 (01:30) 0 0 0 0 0
12-06-2019 24.3 (15:10) 14.5 (00:00) 19.4 13.33 (11:10) 6.67 (11:10) 0 0 0 0 0
11-06-2019 26.6 (18:30) 12 (00:00) 19.3 10.83 (16:40) 4.44 (17:10) 0 0 0 0 0
10-06-2019 26.4 (17:30) 12 (00:00) 19.2 8.33 (15:30) 3.89 (15:00) 0 0 0 0 0
09-06-2019 27 (16:50) 16.6 (00:00) 21.8 10.28 (15:40) 4.72 (17:30) 0 0 0 0 0
08-06-2019 25.8 (14:50) 9.3 (00:00) 17.5 12.22 (17:40) 6.39 (18:50) 0 0 0 0 0
07-06-2019 25.3 (18:00) 11.8 (00:00) 18.5 6.67 (15:40) 2.5 (15:00) 0 0 0 0 0
06-06-2019 -- (--) -- (--) -- 9.17 (20:00) 4.72 (20:00) -- 0 -- 0 0
05-06-2019 -- (--) -- (--) -- -- (--) -- (--) -- 0 0 -- 0
04-06-2019 -- (--) -- (--) -- -- (--) -- (--) -- 0 -- 0 0
03-06-2019 -- (--) -- (--) -- -- (--) -- (--) -- 0 -- -- 0
02-06-2019 28.4 (17:00) 18.1 (00:00) 23.3 11.11 (01:40) 6.39 (18:30) 0 0 0 0 0
01-06-2019 25.6 (15:10) 15.8 (00:00) 20.7 14.17 (13:30) 7.22 (16:40) 0 0 0 0 0
31-05-2019 25.6 (16:40) 14.4 (00:00) 20 16.67 (16:50) 8.89 (16:50) 0 0 0 0 0
30-05-2019 22.9 (16:50) 15.5 (00:00) 19.2 15.28 (15:50) 8.33 (15:40) 0 0 0 0 0
29-05-2019 26.5 (16:50) 16.8 (00:00) 21.6 13.33 (11:10) 6.94 (11:50) 0 0 0 0 0
28-05-2019 33.2 (18:10) 15.9 (00:00) 24.6 8.06 (14:40) 3.33 (16:30) 0 0 0 0 0
27-05-2019 32.4 (17:30) 12.3 (00:00) 22.4 6.67 (17:00) 2.78 (13:50) 0 0 0 0 0

Gráficas

Temp. máximas Temp. mínimas Temp. medias Precipitaciones Rachas de viento máximas Velocidades máximas media en intervalos de 10 minutos

Datos horarios

Fecha y hora oficial Temperatura (ºC) Velocidad del viento (km/h) Dirección del viento Racha (km/h) Dirección de racha Precipitación (mm) Presión (hPa) Tendencia (hPa) Humedad (%)
2019-06-25 23:00:00 24.6 5 Sur 18 Sur 0 967.7 1.9 50
2019-06-25 22:00:00 25.9 8 Sur 21 Sur 0 966.9 1.3 46
2019-06-25 21:00:00 27.8 10 Sur 23 Sudeste 0 966.3 0.5 43
2019-06-25 20:00:00 30.4 10 Sudeste 26 Sudeste 0 965.8 -0.3 38
2019-06-25 19:00:00 31.4 14 Sudeste 30 Sur 0 965.6 -0.6 37
2019-06-25 18:00:00 32.2 11 Sudeste 33 Sudeste 0 965.8 -0.7 37
2019-06-25 17:00:00 31.9 12 Sur 29 Sudeste 0 966.1 -1 37
2019-06-25 16:00:00 32.4 8 Sur 24 Sur 0 966.2 -1.5 35
2019-06-25 15:00:00 31.7 3 Sudoeste 19 Sudoeste 0 966.5 -1.7 35
2019-06-25 14:00:00 30.3 3 Sur 17 Noroeste 0 967.1 -1.1 40
2019-06-25 13:00:00 29 0 Calma 15 Oeste 0 967.7 -0.8 46
2019-06-25 12:00:00 26.4 3 Noroeste 12 Norte 0 968.2 -0.2 56
2019-06-25 11:00:00 24.9 0 Calma 12 Noroeste 0 968.2 0.2 62
2019-06-25 10:00:00 22.8 0 Calma 8 Noroeste 0 968.5 0.8 68
2019-06-25 09:00:00 20.8 0 Calma 4 Este 0 968.4 1.1 76
2019-06-25 08:00:00 18.6 2 Nordeste 4 Nordeste 0 968 0.7 85
2019-06-25 07:00:00 17.8 0 Calma 3 Nordeste 0 967.7 0.6 85
2019-06-25 06:00:00 18.4 0 Calma 6 Norte 0 967.3 -0.2 83
2019-06-25 05:00:00 18.7 0 Calma 13 Noroeste 0 967.3 -0.4 81
2019-06-25 04:00:00 19.4 9 Noroeste 13 Noroeste 0 967.1 -0.7 79
2019-06-25 03:00:00 20 0 Calma 16 Noroeste 0 967.5 0 75
2019-06-25 02:00:00 20.9 6 Noroeste 11 Noroeste 0 967.7 0.6 72
2019-06-25 01:00:00 21.8 4 Noroeste 8 Noroeste 0 967.8 1.2 69
2019-06-25 00:00:00 22.6 0 Calma 6 Nordeste 0 967.5 1.3 67
2019-06-24 23:00:00 23.6 5 Noroeste 14 Noroeste 0 967.1 1.4 64
2019-06-24 22:00:00 24.6 10 Noroeste 20 Noroeste 0 966.6 1.4 60
2019-06-24 21:00:00 26.7 11 Noroeste 24 Noroeste 0 966.2 1.1 51
2019-06-24 20:00:00 28.3 13 Noroeste 27 Noroeste 0 965.7 0.7 47
2019-06-24 19:00:00 30.8 7 Oeste 19 Sur 0 965.2 -0.1 39
2019-06-24 18:00:00 31.3 5 Sur 18 Sur 0 965.1 -0.4 36
2019-06-24 17:00:00 31.7 3 Sur 18 Sudoeste 0 965 -0.8 35
2019-06-24 16:00:00 31 3 Sudoeste 16 Sur 0 965.3 -0.8 34
2019-06-24 15:00:00 30.1 4 Oeste 14 Oeste 0 965.5 -1.1 35
2019-06-24 14:00:00 29.1 0 Calma 14 Este 0 965.8 -0.7 37
2019-06-24 13:00:00 28.2 3 Sudeste 16 Sudeste 0 966.1 -0.6 37
2019-06-24 12:00:00 26.4 3 Sudoeste 18 Oeste 0 966.6 0.2 40
2019-06-24 11:00:00 25 3 Noroeste 12 Oeste 0 966.5 0.2 49
2019-06-24 10:00:00 22.5 0 Calma 6 Oeste 0 966.7 0.7 57
2019-06-24 09:00:00 20.2 0 Calma 6 Este 0 966.4 0.5 62
2019-06-24 08:00:00 17.7 0 Calma 8 Nordeste 0 966.3 0.4 67
2019-06-24 07:00:00 18.1 0 Calma 6 Nordeste 0 966 -0.3 65
2019-06-24 06:00:00 18.6 4 Noroeste 7 Noroeste 0 965.9 -0.5 64
2019-06-24 05:00:00 19.6 0 Calma 9 Noroeste 0 965.9 -0.7 60
2019-06-24 04:00:00 20.5 3 Sur 19 Sur 0 966.3 -0.4 57
2019-06-24 03:00:00 20.9 0 Calma 14 Sur 0 966.4 0.1 57
2019-06-24 02:00:00 21.1 2 Sur 10 Sur 0 966.6 0.9 59
2019-06-24 01:00:00 21.2 0 Calma 4 Oeste 0 966.7 1.7 58
2019-06-24 00:00:00 22.2 0 Calma 0 Calma 0 966.3 1.9 55
2019-06-23 23:00:00 23.3 0 Calma 7 Oeste 0 965.7 1.8 52
2019-06-23 22:00:00 24.6 0 Calma 16 Sur 0 965 1.3 49
2019-06-23 21:00:00 25.9 6 Sur 29 Sudeste 0 964.4 0.5 44
2019-06-23 20:00:00 27.4 14 Sudeste 28 Sudeste 0 963.9 -0.3 41
2019-06-23 19:00:00 29.2 8 Sudeste 25 Sudeste 0 963.7 -0.9 40
2019-06-23 18:00:00 29.5 10 Sudeste 27 Sur 0 963.9 -1.3 40
2019-06-23 17:00:00 29.3 13 Sur 32 Sudeste 0 964.2 -1.3 44
2019-06-23 16:00:00 28.6 14 Sur 32 Sudeste 0 964.6 -1.2 47
2019-06-23 15:00:00 27.3 10 Sur 28 Sudeste 0 965.2 -0.6 51
2019-06-23 14:00:00 27.4 11 Sur 31 Sudeste 0 965.5 -0.6 51
2019-06-23 13:00:00 26.3 12 Sur 23 Sudeste 0 965.8 -0.2 52
2019-06-23 12:00:00 26 7 Sur 20 Sudeste 0 965.8 -0.4 55
2019-06-23 11:00:00 24.7 0 Calma 8 Sudeste 0 966.1 -0.1 60
2019-06-23 10:00:00 22.5 0 Calma 5 Sudoeste 0 966 -0.2 66
2019-06-23 09:00:00 20.9 0 Calma 13 Nordeste 0 966.2 0 70
2019-06-23 08:00:00 17.9 8 Nordeste 13 Norte 0 966.2 0.1 80
2019-06-23 07:00:00 17.7 0 Calma 13 Noroeste 0 966.2 -0.1 85
2019-06-23 06:00:00 18.3 0 Calma 6 Noroeste 0 966.2 -0.1 83
2019-06-23 05:00:00 17.7 0 Calma 8 Norte 0 966.1 -0.7 82
2019-06-23 04:00:00 18.1 0 Calma 8 Nordeste 0 966.3 -0.6 81
2019-06-23 03:00:00 19.1 2 Sudoeste 9 Sudoeste 0 966.3 -0.7 79
2019-06-23 02:00:00 19.3 3 Oeste 11 Oeste 0 966.8 0.2 78
2019-06-23 01:00:00 20.2 2 Oeste 9 Sudoeste 0 966.9 1.1 73
2019-06-23 00:00:00 20.5 2 Oeste 21 Sudeste 0 967 1.9 71
2019-06-22 23:00:00 21.2 7 Sur 26 Sur 0 966.6 1.7 68
2019-06-22 22:00:00 22.3 13 Sur 35 Sur 0 965.8 0.9 61
2019-06-22 21:00:00 24.9 17 Sudeste 37 Sudeste 0 965.1 -0.1 49
2019-06-22 20:00:00 27.1 17 Sur 31 Sur 0 964.9 -0.6 45
2019-06-22 19:00:00 28.7 14 Sur 28 Sur 0 964.9 -1.2 41
2019-06-22 18:00:00 28.9 7 Sur 28 Sudeste 0 965.2 -1.5 43
2019-06-22 17:00:00 28.7 13 Sudeste 37 Sur 0 965.5 -1.7 44
2019-06-22 16:00:00 27.7 19 Sudeste 37 Sudeste 0 966.1 -1.5 46
2019-06-22 15:00:00 27.8 15 Sudeste 35 Sudeste 0 966.7 -1 45
2019-06-22 14:00:00 28.1 13 Sudeste 31 Sudeste 0 967.2 -0.5 46
2019-06-22 13:00:00 26.6 13 Sur 30 Sur 0 967.6 -0.7 49
2019-06-22 12:00:00 25.3 10 Sur 32 Sudeste 0 967.7 -0.6 51
2019-06-22 11:00:00 24.7 14 Sudeste 29 Sudeste 0 967.7 -0.1 53
2019-06-22 10:00:00 22.9 11 Sudeste 24 Este 0 968.3 0.9 59
2019-06-22 09:00:00 20.1 10 Sur 24 Sur 0 968.3 1.4 68
2019-06-22 08:00:00 18.4 4 Sur 18 Sur 0 967.8 -- 70
2019-06-22 07:00:00 17.4 2 Sur 8 Sudeste 0 967.4 0.5 68
2019-06-22 06:00:00 16.4 0 Calma 5 Oeste 0 966.9 -0.4 57
2019-06-22 05:00:00 -- 0 Calma 6 Oeste 0 -- -- --
2019-06-22 04:00:00 16.1 0 Calma 3 Nordeste 0 966.9 -0.6 52
2019-06-22 03:00:00 17.3 0 Calma 5 Este 0 967.3 0.2 46
2019-06-22 02:00:00 18.8 5 Nordeste 8 Nordeste 0 967.5 0.7 44
2019-06-22 01:00:00 19.1 0 Calma 8 Oeste 0 967.5 1.1 40
2019-06-22 00:00:00 21.1 3 Oeste 10 Noroeste 0 967.1 0.9 38
2019-06-21 23:00:00 22.7 5 Noroeste 8 Noroeste 0 966.8 0.9 35
2019-06-21 22:00:00 24.7 2 Noroeste 14 Oeste 0 966.4 0.6 33
2019-06-21 21:00:00 27 6 Noroeste 21 Noroeste 0 966.2 0.4 31
2019-06-21 20:00:00 28.3 9 Noroeste 22 Noroeste 0 965.9 -0.2 29
2019-06-21 19:00:00 28.8 9 Noroeste 21 Oeste 0 965.8 -0.4 28
2019-06-21 18:00:00 29.2 8 Noroeste 25 Noroeste 0 965.8 -0.9 28
2019-06-21 17:00:00 29 7 Oeste 21 Noroeste 0 966.1 -0.9 30
2019-06-21 16:00:00 28.7 5 Noroeste 24 Nordeste 0 966.2 -1.3 33
2019-06-21 15:00:00 27.5 10 Oeste 22 Noroeste 0 966.7 -1.2 35
2019-06-21 14:00:00 26.9 3 Noroeste 22 Noroeste 0 967 -1.2 40
2019-06-21 13:00:00 25.6 6 Nordeste 19 Nordeste 0 967.5 -0.9 45
2019-06-21 12:00:00 24.1 3 Norte 15 Noroeste 0 967.9 -0.1 50
2019-06-21 11:00:00 22 4 Nordeste 12 Noroeste 0 968.2 0.4 56
2019-06-21 10:00:00 19.8 0 Calma 7 Este 0 968.4 0.9 63
2019-06-21 09:00:00 17.4 0 Calma 4 Este 0 968 0.6 68
2019-06-21 08:00:00 14.5 0 Calma 8 Nordeste 0 967.8 0.3 78
2019-06-21 07:00:00 14.1 0 Calma 5 Nordeste 0 967.5 0.2 79
2019-06-21 06:00:00 14.6 0 Calma -- -- 0 967.4 0.1 75
2019-06-21 05:00:00 15.4 0 Calma 3 Oeste 0 967.5 0.3 73
2019-06-21 04:00:00 16.3 0 Calma 8 Nordeste 0 967.3 0.2 71
2019-06-21 03:00:00 16.9 4 Nordeste 9 Nordeste 0 967.3 0.3 70
2019-06-21 02:00:00 17.1 0 Calma 6 Noroeste 0 967.2 0.8 68
2019-06-21 01:00:00 18.2 0 Calma 9 Noroeste 0 967.1 1.1 64
2019-06-21 00:00:00 19.3 0 Calma 9 Noroeste 0 967 1.2 59
2019-06-20 23:00:00 20.5 4 Oeste 17 Oeste 0 966.4 0.9 55
2019-06-20 22:00:00 22.1 6 Oeste 19 Oeste 0 966 0.4 47
2019-06-20 21:00:00 24 8 Oeste 23 Noroeste 0 965.8 0.2 44
2019-06-20 20:00:00 25.2 13 Oeste 28 Oeste 0 965.5 -0.2 41
2019-06-20 19:00:00 26 14 Noroeste 27 Oeste 0 965.6 -0.5 40
2019-06-20 18:00:00 26.6 10 Oeste 26 Oeste 0 965.6 -1 40
2019-06-20 17:00:00 26.6 10 Noroeste 31 Oeste 0 965.7 -1.3 40
2019-06-20 16:00:00 26 9 Oeste 27 Noroeste 0 966.1 -- 42
2019-06-20 15:00:00 25.6 9 Oeste 31 Oeste 0 966.6 -0.8 45
2019-06-20 14:00:00 24.8 6 Noroeste 24 Noroeste 0 967 -0.3 50
2019-06-20 13:00:00 -- 5 Noroeste 25 Sudoeste 0 -- -- --
2019-06-20 12:00:00 22.6 8 Noroeste 20 Oeste 0 967.4 -0.2 59
2019-06-20 11:00:00 21.4 6 Noroeste 17 Oeste 0 967.3 -0.1 63
2019-06-20 10:00:00 20 5 Noroeste 13 Noroeste 0 967.5 0.2 69
2019-06-20 09:00:00 17.6 2 Este 7 Este 0 967.6 0.5 75
2019-06-20 08:00:00 15 0 Calma 0 Calma 0 967.4 0.2 86
2019-06-20 07:00:00 13.9 0 Calma 3 Oeste 0 967.3 -0.1 88
2019-06-20 06:00:00 14.7 0 Calma 3 Nordeste 0 967.1 -0.8 86
2019-06-20 05:00:00 15.3 0 Calma 7 Nordeste 0 967.2 -1.2 86
2019-06-20 04:00:00 16.2 5 Nordeste 8 Nordeste 0 967.4 -0.7 83
2019-06-20 03:00:00 16.6 4 Nordeste 6 Nordeste 0 967.9 0.1 81
2019-06-20 02:00:00 17.2 0 Calma 13 Noroeste 0 968.4 1.2 81
2019-06-20 01:00:00 18 5 Noroeste 14 Oeste 0 968.1 1.4 74
2019-06-20 00:00:00 19.8 8 Oeste 15 Oeste 0 967.8 1.4 65
2019-06-19 23:00:00 21.7 9 Oeste 21 Noroeste 0 967.2 0.9 56
2019-06-19 22:00:00 23.9 8 Noroeste 17 Noroeste 0 966.7 0.5 45
2019-06-19 21:00:00 25.7 11 Noroeste 21 Noroeste 0 966.4 -0.2 40
2019-06-19 20:00:00 27.9 10 Oeste 23 Norte 0 966.3 -0.8 37
2019-06-19 19:00:00 28.6 9 Noroeste 22 Noroeste 0 966.2 -1.5 36
2019-06-19 18:00:00 28 10 Noroeste 22 Noroeste 0 966.6 -1.5 37
2019-06-19 17:00:00 27.9 3 Norte 23 Noroeste 0 967.1 -1.8 39
2019-06-19 16:00:00 26.6 9 Noroeste 25 Noroeste 0 967.7 -1.7 41
2019-06-19 15:00:00 25.5 5 Norte 22 Nordeste 0 968.1 -1.2 45
2019-06-19 14:00:00 24.1 4 Nordeste 20 Nordeste 0 968.9 -0.6 49
2019-06-19 13:00:00 22 9 Noroeste 21 Noroeste 0 969.4 -0.3 56
2019-06-19 12:00:00 20.4 3 Noroeste 16 Noroeste 0 969.3 0 62
2019-06-19 11:00:00 19.1 4 Nordeste 14 Nordeste 0 969.5 0.4 70
2019-06-19 10:00:00 17.3 2 Norte 12 Noroeste 0 969.7 0.8 78
2019-06-19 09:00:00 16.7 6 Noroeste 15 Noroeste 0 969.3 0.5 82
2019-06-19 08:00:00 16.1 8 Noroeste 16 Noroeste 0 969.1 0.5 87
2019-06-19 07:00:00 15.5 4 Noroeste 12 Noroeste 0 968.9 0.2 91
2019-06-19 06:00:00 14.9 5 Noroeste 12 Noroeste 0 968.8 -0.1 92
2019-06-19 05:00:00 15.5 0 Calma 10 Noroeste 0 968.6 -0.3 88
2019-06-19 04:00:00 15.5 2 Noroeste 9 Noroeste 0 968.7 -0.5 90
2019-06-19 03:00:00 16.4 0 Calma 11 Noroeste 0 968.9 -0.4 86
2019-06-19 02:00:00 17.1 4 Noroeste 7 Noroeste 0 968.9 0 82
2019-06-19 01:00:00 17.8 0 Calma 10 Noroeste 0 969.2 1 79
2019-06-19 00:00:00 18.6 0 Calma 15 Noroeste 0 969.3 1.7 74
2019-06-18 23:00:00 20.1 4 Noroeste 14 Noroeste 0 968.9 1.8 67
2019-06-18 22:00:00 21.8 8 Oeste 23 Oeste 0 968.2 1.5 58
2019-06-18 21:00:00 24.1 12 Oeste 25 Noroeste 0 967.6 0.6 50
2019-06-18 20:00:00 26.4 13 Noroeste 29 Noroeste 0 967.1 0.2 44
2019-06-18 19:00:00 28.1 12 Noroeste 26 Noroeste 0 966.7 -0.5 39
2019-06-18 18:00:00 29 7 Oeste 26 Oeste 0 967 -0.6 37
2019-06-18 17:00:00 28.2 7 Noroeste 23 Oeste 0 966.9 -0.7 40
2019-06-18 16:00:00 27.7 10 Noroeste 27 Noroeste 0 967.2 -0.8 44
2019-06-18 15:00:00 26.9 10 Noroeste 24 Noroeste 0 967.6 -0.6 45
2019-06-18 14:00:00 26.2 5 Norte 29 Norte 0 967.6 -0.8 46
2019-06-18 13:00:00 26.1 3 Oeste 15 Oeste 0 968 -0.6 42
2019-06-18 12:00:00 24.6 4 Oeste 15 Sudoeste 0 968.2 -0.1 49
2019-06-18 11:00:00 22.6 4 Noroeste 15 Norte 0 968.4 0.4 55
2019-06-18 10:00:00 19.8 0 Calma 6 Noroeste 0 968.6 1 63
2019-06-18 09:00:00 18.7 0 Calma 9 Noroeste 0 968.3 1.1 65
2019-06-18 08:00:00 15.1 0 Calma 6 Noroeste 0 968 0.8 69
2019-06-18 07:00:00 15.6 6 Noroeste 11 Noroeste 0 967.6 0.1 68
2019-06-18 06:00:00 15.5 0 Calma 14 Nordeste 0 967.2 -0.7 67
2019-06-18 05:00:00 17 9 Nordeste 13 Este 0 967.2 -0.5 61
2019-06-18 04:00:00 18.5 4 Sudeste 9 Sudeste 0 967.5 -0.5 47
2019-06-18 03:00:00 19.7 0 Calma 27 Sudeste 0 967.9 0 45
2019-06-18 02:00:00 20 11 Este 20 Este 0 967.7 0.3 44
2019-06-18 01:00:00 20.4 0 Calma 10 Noroeste 0 968 1.1 40
2019-06-18 00:00:00 21.6 0 Calma 14 Sur 0 967.9 1 38
2019-06-17 23:00:00 22.4 0 Calma 27 Sur 0 967.4 0.8 37
2019-06-17 22:00:00 23.1 12 Sur 30 Sur 0 966.9 0.4 35
2019-06-17 21:00:00 25 17 Sudeste 32 Sudeste 0 966.9 0 32
2019-06-17 20:00:00 27.4 18 Sur 31 Sudeste 0 966.6 -0.3 28
2019-06-17 19:00:00 28.6 15 Sur 33 Sur 0 966.5 -1.2 27
2019-06-17 18:00:00 29.1 15 Sudeste 32 Sudeste 0 966.9 -1.4 28
2019-06-17 17:00:00 29.1 15 Sudeste 32 Sur 0 966.9 -2.1 29
2019-06-17 16:00:00 28.6 14 Sudeste 31 Sudeste 0 967.7 -1.6 33
2019-06-17 15:00:00 28 12 Sur 28 Sur 0 968.3 -1.2 34
2019-06-17 14:00:00 27.6 14 Sudeste 32 Sudeste 0 969 -0.8 34
2019-06-17 13:00:00 26.9 9 Sur 28 Sudeste 0 969.3 -0.8 37
2019-06-17 12:00:00 25.4 10 Sur 23 Sur 0 969.5 -0.7 39
2019-06-17 11:00:00 21.9 0 Calma 9 Sudeste 0 969.8 -0.5 46
2019-06-17 10:00:00 19.4 2 Este 11 Este 0 970.1 0.1 51
2019-06-17 09:00:00 16.9 0 Calma 3 Sudeste 0 970.2 0.5 56
2019-06-17 08:00:00 12.6 0 Calma 3 Este 0 970.3 0.5 65
2019-06-17 07:00:00 11.2 0 Calma 4 Este 0 970 0 65
2019-06-17 06:00:00 12.8 0 Calma 7 Nordeste 0 969.7 -0.6 59
2019-06-17 05:00:00 14.3 0 Calma 6 Nordeste 0 969.8 -0.9 55
2019-06-17 04:00:00 16.8 3 Nordeste 10 Nordeste 0 970 -1 50
2019-06-17 03:00:00 17.8 2 Sudoeste 18 Sudeste 0 970.3 -0.7 49
2019-06-17 02:00:00 18.3 4 Sur 16 Sur 0 970.7 -0.1 48
2019-06-17 01:00:00 19.1 4 Sur 24 Sur 0 971 0.8 46
2019-06-17 00:00:00 19.4 13 Sur 27 Sur 0 971 1.4 44
2019-06-16 23:00:00 20.1 9 Sur 23 Sur 0 970.8 1.4 43
2019-06-16 22:00:00 21 0 Calma 28 Sur 0 970.2 0.9 42
2019-06-16 21:00:00 22 16 Sur 34 Sur 0 969.6 0.5 41
2019-06-16 20:00:00 23.6 17 Sudeste 39 Sur 0 969.4 0.2 39
2019-06-16 19:00:00 24.7 18 Sur -- -- -- 969.3 -0.2 37
2019-06-16 18:00:00 25.8 18 Sudeste 37 Sudeste 0 969.1 -0.8 33
2019-06-16 17:00:00 25.4 18 Sur 42 Sur 0 969.2 -1 34
2019-06-16 16:00:00 25.6 14 Sur 32 Sur 0 969.5 -0.4 32
2019-06-16 15:00:00 25.4 10 Sur 31 Sur 0 969.9 0 34
2019-06-16 14:00:00 24.2 13 Sur 38 Sur 0 970.2 0.5 35
2019-06-16 13:00:00 24.3 10 Sur 29 Sudeste 0 969.9 0.2 37
2019-06-16 12:00:00 23.3 10 Sudeste 27 Sudeste 0 969.9 1.1 38
2019-06-16 11:00:00 24 10 Sudeste 28 Sudeste 0 969.7 0.7 39
2019-06-16 10:00:00 21.3 6 Sudeste 16 Sudeste 0 969.7 1 47
2019-06-16 09:00:00 17.2 2 Este 12 Este 0 968.8 0.5 56
2019-06-16 08:00:00 14.8 2 Oeste 6 Noroeste 0 969 0.7 59
2019-06-16 07:00:00 12.8 4 Oeste 12 Oeste 0 968.7 0.3 56
2019-06-16 06:00:00 13.4 0 Calma 6 Sudoeste 0 968.3 -0.6 53
2019-06-16 05:00:00 14.3 4 Oeste 6 Oeste 0 968.3 -1 51
2019-06-16 04:00:00 15.1 0 Calma 5 Norte 0 968.4 -1.4 49
2019-06-16 03:00:00 16.2 0 Calma 4 Norte 0 968.9 -0.8 47
2019-06-16 02:00:00 17.8 0 Calma 8 Oeste 0 969.3 -0.6 43
2019-06-16 01:00:00 18.8 3 Noroeste 7 Noroeste 0 969.8 0.7 40
2019-06-16 00:00:00 21.1 0 Calma 6 Noroeste 0 969.7 1 39
2019-06-15 23:00:00 22.7 0 Calma 10 Norte 0 969.9 1.3 34
2019-06-15 22:00:00 23.7 2 Norte 13 Norte 0 969.1 0.5 33
2019-06-15 21:00:00 25.7 3 Noroeste 14 Noroeste 0 968.7 -0.2 31
2019-06-15 20:00:00 27.6 0 Calma 19 Noroeste 0 968.6 -0.7 30
2019-06-15 19:00:00 27.7 4 Noroeste 19 Nordeste 0 968.6 -1 30
2019-06-15 18:00:00 27.1 3 Norte 22 Nordeste 0 968.9 -1.2 32
2019-06-15 17:00:00 26.5 3 Norte 20 Noroeste 0 969.3 -1.4 33
2019-06-15 16:00:00 25.9 4 Norte 22 Noroeste 0 969.6 -1.4 33
2019-06-15 15:00:00 24.5 9 Noroeste 30 Noroeste 0 970.1 -1.2 36
2019-06-15 14:00:00 24 4 Noroeste 26 Noroeste 0 970.7 -0.7 40
2019-06-15 13:00:00 22.2 6 Noroeste 20 Noroeste 0 971 -0.5 45
2019-06-15 12:00:00 21 8 Nordeste 20 Nordeste 0 971.3 -0.4 47
2019-06-15 11:00:00 19.4 5 Nordeste 18 Nordeste 0 971.4 0 52
2019-06-15 10:00:00 16.7 5 Este 11 Este 0 971.5 0.4 63
2019-06-15 09:00:00 14.4 0 Calma 6 Sudeste 0 971.7 1.2 67
2019-06-15 08:00:00 12 0 Calma 2 Este 0 971.4 0.8 75
2019-06-15 07:00:00 10.2 0 Calma 2 Sudeste 0 971.1 0.3 77
2019-06-15 06:00:00 11 0 Calma 11 Nordeste 0 970.5 -0.4 75
2019-06-15 05:00:00 12.3 7 Nordeste 12 Nordeste 0 970.6 -0.6 71
2019-06-15 04:00:00 13 5 Nordeste 10 Nordeste 0 970.8 -0.5 69
2019-06-15 03:00:00 13.3 0 Calma 8 Norte 0 970.9 0.1 67
2019-06-15 02:00:00 13.6 2 Noroeste 10 Noroeste 0 971.2 0.9 67
2019-06-15 01:00:00 14.7 0 Calma 10 Noroeste 0 971.3 1.6 59
2019-06-15 00:00:00 15.5 0 Calma 9 Oeste 0 970.8 1.6 57
2019-06-14 23:00:00 16.7 4 Oeste 11 Oeste 0 970.3 1.8 52
2019-06-14 22:00:00 18 6 Oeste 22 Noroeste 0 969.7 1.5 47
2019-06-14 21:00:00 19.7 13 Oeste 27 Noroeste 0 969.2 0.9 42
2019-06-14 20:00:00 21.2 13 Oeste 27 Oeste 0 968.5 0.7 39
2019-06-14 19:00:00 21.9 12 Oeste 31 Noroeste 0 968.2 0.3 38
2019-06-14 18:00:00 22.6 13 Oeste 35 Oeste 0 968.3 0.3 38
2019-06-14 17:00:00 23.4 10 Oeste 37 Oeste 0 967.8 -0.5 39
2019-06-14 16:00:00 22.6 13 Oeste 28 Noroeste 0 967.9 -0.4 41
2019-06-14 15:00:00 22 8 Oeste 25 Oeste 0 968 0 44
2019-06-14 14:00:00 21.5 8 Oeste 29 Oeste 0 968.3 0.6 45
2019-06-14 13:00:00 20.5 12 Oeste 29 Oeste 0 968.3 1.3 46
2019-06-14 12:00:00 20.1 11 Oeste 31 Oeste 0 968 1.6 50
2019-06-14 11:00:00 19.5 10 Oeste 24 Oeste 0 967.7 2.1 48
2019-06-14 10:00:00 18.4 12 Oeste 25 Oeste 0 967 1.6 55
2019-06-14 09:00:00 17.2 7 Oeste 18 Oeste 0 966.4 -- 67
2019-06-14 08:00:00 15.8 0 Calma 4 Norte 0 965.6 0.8 86
2019-06-14 07:00:00 15.2 0 Calma 4 Sudeste 0 965.4 0.7 88
2019-06-14 06:00:00 -- 0 Calma 6 Noroeste 0 -- -- --
2019-06-14 05:00:00 16.3 0 Calma 10 Noroeste 0 964.8 -0.6 86
2019-06-14 04:00:00 17.3 2 Sudoeste 15 Sur 0 964.7 -0.6 82
2019-06-14 03:00:00 17.8 6 Sur 24 Sudeste 0 964.7 -0.2 79
2019-06-14 02:00:00 18.2 8 Sur 21 Sur 0 965.4 1.4 75
2019-06-14 01:00:00 18.9 6 Sur 22 Sur 0 965.3 2.4 70
2019-06-14 00:00:00 19.2 12 Sur 22 Sur 0 964.9 2.9 68
2019-06-13 23:00:00 20.3 3 Sur 15 Sur 0 964 2.6 62
2019-06-13 22:00:00 21.5 4 Sudoeste 16 Sudoeste 0 962.9 1.8 58
2019-06-13 21:00:00 22.7 4 Sudoeste 22 Sudeste 0 962 1 55
2019-06-13 20:00:00 23.3 12 Sudeste 29 Sudeste 0 961.4 -0.1 52
2019-06-13 19:00:00 24.6 16 Sudeste 29 Sudeste 0 961.1 -0.9 50
2019-06-13 18:00:00 25.2 13 Sur 27 Sudeste 0 961 -1.5 47
2019-06-13 17:00:00 25.4 8 Sur 26 Sur 0 961.5 -1.3 46
2019-06-13 16:00:00 24.4 10 Sur 28 Sur 0 962 -- 49
2019-06-13 15:00:00 23.6 9 Sur 32 Sur 0 962.5 -- 52
2019-06-13 14:00:00 23.7 10 Sur 30 Sur 0 962.8 -0.6 52
2019-06-13 13:00:00 -- 10 Sur -- -- -- -- -- --
2019-06-13 12:00:00 -- -- -- -- -- -- -- -- --
2019-06-13 11:00:00 19 8 Sur 19 Sudeste 0 963.4 0.5 73
2019-06-13 10:00:00 18 2 Sur 19 Sudeste 0 963.4 0.8 76
2019-06-13 09:00:00 17 6 Este 14 Este 0 963 0.5 81
2019-06-13 08:00:00 15.7 0 Calma 0 Calma 0 962.9 0.3 86
2019-06-13 07:00:00 14.9 0 Calma 9 Sudoeste 0 962.6 -0.5 88
2019-06-13 06:00:00 14.8 0 Calma 7 Oeste 0 962.5 -0.8 87
2019-06-13 05:00:00 15.3 4 Noroeste 10 Sudoeste 0 962.6 -0.9 83
2019-06-13 04:00:00 15.6 4 Noroeste 22 Sur 0 963.1 -0.7 81
2019-06-13 03:00:00 16.1 10 Sur 35 Sudeste 0 963.3 -0.6 79
2019-06-13 02:00:00 16.4 17 Sudeste 37 Sur 0 963.5 0.1 75
2019-06-13 01:00:00 16.7 14 Sur 32 Sur 0 963.8 1 74
2019-06-13 00:00:00 16.9 15 Sur 38 Sur 0 963.9 1.6 73
2019-06-12 23:00:00 17.7 17 Sur 42 Sur 0 963.4 1.3 68
2019-06-12 22:00:00 18.9 12 Sudeste 29 Sur 0 962.8 0.3 63
2019-06-12 21:00:00 20.5 13 Sur 33 Sudeste 0 962.3 -0.6 57
2019-06-12 20:00:00 21.7 15 Sudeste 34 Sudeste 0 962.1 -1 55
2019-06-12 19:00:00 21.8 22 Sur 39 Sur 0 962.5 -1.1 53
2019-06-12 18:00:00 22.5 21 Sudeste 43 Sur 0 962.9 -1.1 52
2019-06-12 17:00:00 22.7 21 Sudeste 39 Sudeste 0 963.1 -1.6 50
2019-06-12 16:00:00 23.8 16 Sur 33 Sudeste 0 963.6 -1.3 49
2019-06-12 15:00:00 23 17 Sudeste 39 Sudeste 0 964 -1 49
2019-06-12 14:00:00 22.4 20 Sur 44 Sur 0 964.7 -0.1 51
2019-06-12 13:00:00 21.4 22 Sur 40 Sudeste 0 964.9 0.1 55
2019-06-12 12:00:00 20.7 21 Sur 48 Sur 0 965 0.4 59
2019-06-12 11:00:00 20 22 Sur 44 Sur 0 964.8 0.5 64
2019-06-12 10:00:00 18.8 18 Sur 43 Sudeste 0 964.8 0.8 71
2019-06-12 09:00:00 17.7 13 Sur 34 Sur 0 964.6 1 76
2019-06-12 08:00:00 17 14 Sur 30 Sur 0 964.3 0.6 81
2019-06-12 07:00:00 16.3 9 Sur 28 Sudoeste 0 964 0.4 85
2019-06-12 06:00:00 16.7 7 Sur 20 Sur 0 963.6 0.4 81
2019-06-12 05:00:00 16.1 2 Sur 10 Sur 0 963.7 0.2 77
2019-06-12 04:00:00 15.6 3 Oeste 8 Oeste 0 963.6 0 68
2019-06-12 03:00:00 15.7 4 Noroeste 10 Noroeste 0 963.2 -0.4 67
2019-06-12 02:00:00 17 4 Nordeste 17 Nordeste 0 963.5 0.3 64
2019-06-12 01:00:00 18.3 0 Calma 9 Noroeste 0 963.6 1.1 59
2019-06-12 00:00:00 19.2 0 Calma 17 Oeste 0 963.6 1.6 58
2019-06-11 23:00:00 20.2 6 Oeste 21 Noroeste 0 963.2 1.4 53
2019-06-11 22:00:00 22.5 10 Oeste 24 Oeste 0 962.5 0.5 45
2019-06-11 21:00:00 24.9 9 Noroeste 24 Noroeste 0 962 -0.3 35
2019-06-11 20:00:00 26 15 Noroeste 30 Noroeste 0 961.8 -0.7 38
2019-06-11 19:00:00 26.2 13 Noroeste 32 Oeste 0 962 -0.9 38
2019-06-11 18:00:00 25.6 12 Noroeste 35 Noroeste 0 962.3 -0.9 38
2019-06-11 17:00:00 26 13 Noroeste 39 Oeste 0 962.5 -1.1 39
2019-06-11 16:00:00 24.9 12 Noroeste 32 Noroeste 0 962.9 -0.7 39
2019-06-11 15:00:00 24.3 12 Noroeste 30 Noroeste 0 963.2 -0.7 40
2019-06-11 14:00:00 22.5 13 Noroeste 34 Noroeste 0 963.6 -0.4 40
2019-06-11 13:00:00 23.1 14 Noroeste 32 Noroeste 0 963.6 -0.7 45
2019-06-11 12:00:00 22 11 Noroeste 22 Noroeste 0 963.9 -0.3 47
2019-06-11 11:00:00 21.2 2 Noroeste 15 Noroeste 0 964 -0.1 55
2019-06-11 10:00:00 19.1 4 Noroeste 13 Noroeste 0 964.3 -0.1 58
2019-06-11 09:00:00 17.2 0 Calma 9 Oeste 0 964.2 -0.5 64
2019-06-11 08:00:00 12.9 0 Calma 8 Nordeste 0 964.1 -1.1 71
2019-06-11 07:00:00 12.5 6 Nordeste 8 Nordeste 0 964.4 -1.1 73
2019-06-11 06:00:00 12.9 0 Calma 0 Calma 0 964.7 -1.4 70
2019-06-11 05:00:00 14 0 Calma 5 Noroeste 0 965.2 -1.4 68
2019-06-11 04:00:00 14.8 0 Calma 10 Nordeste 0 965.5 -1.7 63
2019-06-11 03:00:00 15.3 5 Nordeste 8 Este 0 966.1 -1 62
2019-06-11 02:00:00 16.7 0 Calma 10 Noroeste 0 966.6 -0.4 59
2019-06-11 01:00:00 16.9 0 Calma 14 Nordeste 0 967.2 0.9 56
2019-06-11 00:00:00 17.7 0 Calma 7 Sudoeste 0 967.1 1.3 52
2019-06-10 23:00:00 19.2 3 Oeste 15 Oeste 0 967 1.2 49
2019-06-10 22:00:00 20.7 4 Oeste 27 Oeste 0 966.3 0.2 45
2019-06-10 21:00:00 23.3 10 Oeste 27 Oeste 0 965.8 -0.7 39
2019-06-10 20:00:00 25.7 9 Noroeste 26 Noroeste 0 965.8 -1 33
2019-06-10 19:00:00 25.5 12 Noroeste 29 Noroeste 0 966.1 -1.3 32
2019-06-10 18:00:00 25.6 9 Noroeste 30 Noroeste 0 966.5 -1.4 32
2019-06-10 17:00:00 25.9 11 Oeste 29 Oeste 0 966.8 -1.6 33
2019-06-10 16:00:00 24.7 12 Noroeste 30 Noroeste 0 967.4 -1.6 34
2019-06-10 15:00:00 24 14 Noroeste 28 Noroeste 0 967.9 -1.3 37
2019-06-10 14:00:00 23.7 5 Noroeste 26 Oeste 0 968.4 -0.7 39
2019-06-10 13:00:00 22.9 5 Noroeste 28 Noroeste 0 969 -0.8 43
2019-06-10 12:00:00 21.6 5 Norte 25 Noroeste 0 969.2 -0.4 47
2019-06-10 11:00:00 20.2 4 Noroeste 18 Noroeste 0 969.1 0 53
2019-06-10 10:00:00 19.3 2 Norte 15 Nordeste 0 969.8 1.3 57
2019-06-10 09:00:00 16.6 0 Calma 5 Este 0 969.6 0.6 60
2019-06-10 08:00:00 13.5 0 Calma 0 Calma 0 969.1 -0.3 69
2019-06-10 07:00:00 12.4 0 Calma 5 Nordeste 0 968.5 -1.2 71
2019-06-10 06:00:00 14.5 0 Calma 8 Este 0 969 -0.9 69
2019-06-10 05:00:00 14.2 0 Calma 9 Norte 0 969.4 -0.6 63
2019-06-10 04:00:00 15.8 0 Calma 11 Nordeste 0 969.7 -0.5 57
2019-06-10 03:00:00 16.2 0 Calma 4 Nordeste 0 969.9 0 53
2019-06-10 02:00:00 17.1 0 Calma 13 Sudoeste 0 970 0.2 50
2019-06-10 01:00:00 18.2 4 Oeste 14 Noroeste 0 970.2 0.9 45
2019-06-10 00:00:00 19.1 7 Oeste 18 Oeste 0 969.9 1.5 41
2019-06-09 23:00:00 19.9 2 Sudoeste 22 Oeste 0 969.8 1.5 39
2019-06-09 22:00:00 20.9 3 Oeste 24 Oeste 0 969.3 1.2 35
2019-06-09 21:00:00 23.5 9 Oeste 27 Oeste 0 968.4 0.1 33
2019-06-09 20:00:00 25.7 8 Oeste 27 Oeste 0 968.3 -0.3 32
2019-06-09 19:00:00 26 10 Oeste 30 Oeste 0 968.1 -0.7 34
2019-06-09 18:00:00 26.1 12 Oeste 31 Noroeste 0 968.3 -0.8 39
2019-06-09 17:00:00 26.7 13 Oeste 36 Noroeste 0 968.6 -0.9 38
2019-06-09 16:00:00 26 9 Oeste 37 Oeste 0 968.8 -1 39
2019-06-09 15:00:00 25.1 6 Noroeste 26 Noroeste 0 969.1 -0.9 44
2019-06-09 14:00:00 24.6 7 Noroeste 27 Oeste 0 969.5 -0.7 46
2019-06-09 13:00:00 24.5 5 Oeste 20 Noroeste 0 969.8 -0.9 46
2019-06-09 12:00:00 22.3 0 Calma 14 Noroeste 0 970 -0.4 54
2019-06-09 11:00:00 20.4 0 Calma 8 Sur 0 970.2 -0.1 69
2019-06-09 10:00:00 19.3 0 Calma 4 Sudeste 0 970.7 0.6 77
2019-06-09 09:00:00 17.6 0 Calma 12 Este 0 970.4 0.4 87
2019-06-09 08:00:00 17 6 Este 20 Sudeste 0 970.3 0.3 90
2019-06-09 07:00:00 17.2 10 Sur 19 Sur 0 970.1 0.2 88
2019-06-09 06:00:00 17 0 Calma 11 Este 0 970 -0.4 86
2019-06-09 05:00:00 17.3 6 Noroeste 11 Noroeste 0 970 -0.7 86
2019-06-09 04:00:00 17.7 4 Este 12 Sudeste 0 969.9 -1 84
2019-06-09 03:00:00 17.9 0 Calma 8 Sudeste 0 970.4 -0.4 81
2019-06-09 02:00:00 18.3 0 Calma 18 Sudeste 0 970.7 0.3 80
2019-06-09 01:00:00 18.5 6 Sudeste 21 Sur 0 970.9 1.2 79
2019-06-09 00:00:00 19.1 4 Sur 15 Sur 0 970.8 1.5 75
2019-06-08 23:00:00 19.4 4 Sudoeste 16 Sudoeste 0 970.4 1.4 70
2019-06-08 22:00:00 20.1 4 Sudoeste 28 Sur 0 969.7 0.8 60
2019-06-08 21:00:00 21.1 13 Sur 36 Sur 0 969.3 0 57
2019-06-08 20:00:00 21.9 16 Sur 43 Sur 0 969 -0.2 54
2019-06-08 19:00:00 23 18 Sur 42 Sudeste 0 968.9 -0.8 51
2019-06-08 18:00:00 23.1 15 Sur 44 Sur 0 969.3 -0.4 51
2019-06-08 17:00:00 23.9 21 Sur 43 Sur 0 969.2 -1.1 47
2019-06-08 16:00:00 24.9 15 Sudeste 40 Sur 0 969.7 -0.7 44
2019-06-08 15:00:00 25.4 17 Sur 37 Sur 0 969.7 -0.3 41
2019-06-08 14:00:00 24.5 11 Sur 36 Sur 0 970.3 0.6 44
2019-06-08 13:00:00 23.9 18 Sur 35 Sudeste 0 970.4 0.6 45
2019-06-08 12:00:00 24 17 Sur 37 Sur 0 970 0.4 49
2019-06-08 11:00:00 23.8 11 Sudeste 28 Sudeste 0 969.7 0.2 46
2019-06-08 10:00:00 20.8 3 Sur 11 Sur 0 969.8 0.5 51
2019-06-08 09:00:00 16.2 0 Calma 4 Sudeste 0 969.6 0.2 53
2019-06-08 08:00:00 11.9 0 Calma 6 Norte 0 969.5 0.3 60
2019-06-08 07:00:00 9.5 5 Nordeste 9 Nordeste 0 969.3 0.3 60
2019-06-08 06:00:00 11.2 0 Calma 7 Sur 0 969.4 0.1 53
2019-06-08 05:00:00 11.7 0 Calma 5 Oeste 0 969.2 -0.2 50
2019-06-08 04:00:00 13.5 0 Calma 8 Noroeste 0 969 -0.6 46
2019-06-08 03:00:00 14.5 5 Noroeste 9 Noroeste 0 969.3 -0.4 44
2019-06-08 02:00:00 14.8 0 Calma 7 Noroeste 0 969.4 -0.1 41
2019-06-08 01:00:00 15.9 0 Calma 0 Calma 0 969.6 0.8 38
2019-06-08 00:00:00 17.5 0 Calma 8 Noroeste 0 969.7 1.2 35
2019-06-07 23:00:00 19.6 2 Noroeste 9 Noroeste 0 969.5 1.3 33
2019-06-07 22:00:00 21.1 3 Noroeste 11 Noroeste 0 968.8 0.6 33
2019-06-07 21:00:00 22.8 3 Norte 17 Nordeste 0 968.5 0.4 30
2019-06-07 20:00:00 24.7 0 Calma 20 Noroeste 0 968.2 0.1 32
2019-06-07 19:00:00 25.3 3 Norte 19 Noroeste 0 968.2 -0.3 33
2019-06-07 18:00:00 24.5 6 Noroeste 23 Noroeste 0 968.1 -0.7 35
2019-06-07 17:00:00 24 4 Norte 22 Nordeste 0 968.1 -0.9 38
2019-06-07 16:00:00 22.6 4 Nordeste 24 Noroeste 0 968.5 -0.8 43
2019-06-07 15:00:00 21.7 9 Nordeste 23 Noroeste 0 968.8 -0.2 52
2019-06-07 14:00:00 20.9 5 Norte 21 Nordeste 0 969 0.1 62
2019-06-07 13:00:00 18.6 4 Noroeste 17 Norte 0 969.3 0.9 70
2019-06-07 12:00:00 16.8 4 Nordeste 17 Noroeste 0 969 1 79
2019-06-07 11:00:00 16.5 4 Noroeste 18 Noroeste 0 968.9 1.4 81
2019-06-07 10:00:00 16.5 4 Noroeste -- -- -- 968.4 1.3 82
2019-06-07 09:00:00 15.4 0 Calma 9 Nordeste 0 968 1.3 82
2019-06-07 08:00:00 14 3 Nordeste 9 Nordeste 0 967.5 0.9 80
2019-06-07 07:00:00 12.7 0 Calma 7 Nordeste 0 967.1 0.6 82
2019-06-07 06:00:00 13.5 0 Calma 7 Noroeste 0 966.7 0.2 81
2019-06-07 05:00:00 13.4 0 Calma 7 Nordeste 0 966.6 0.2 75
2019-06-07 04:00:00 13.8 3 Nordeste 8 Nordeste 0 966.5 0.2 70
2019-06-07 03:00:00 14.4 0 Calma 8 Norte 0 966.5 0.6 67
2019-06-07 02:00:00 15.1 0 Calma 15 Oeste 0 966.4 1.2 64
2019-06-07 01:00:00 15.4 2 Oeste 12 Sudoeste 0 966.3 1.8 61
2019-06-07 00:00:00 16.2 3 Oeste 18 Oeste 0 965.9 2.3 50
2019-06-06 23:00:00 18.1 2 Oeste 19 Oeste 0 965.2 2.2 40
2019-06-06 22:00:00 19.3 0 Calma 23 Oeste 0 964.5 2 36
2019-06-06 21:00:00 21.7 8 Oeste 31 Oeste 0 963.6 0.9 35
2019-06-06 20:00:00 23.9 17 Oeste 33 Oeste 0 963 -0.2 34
2019-06-06 19:00:00 26.6 12 Oeste 30 Oeste 0 962.5 -1 32
2019-06-06 18:00:00 26.5 6 Sur 16 Sudoeste 0 962.7 -1.6 33
2019-06-06 17:00:00 26.4 8 Sur 28 Sur 0 963.2 -1.5 33
2019-06-06 16:00:00 26.8 6 Sur 24 Sudoeste 0 963.5 -1.9 32
2019-06-06 15:00:00 25.7 7 Sudoeste 27 Sudoeste 0 964.3 -1.3 33
2019-06-06 14:00:00 24 5 Noroeste 14 Nordeste 0 964.7 -1.4 34
2019-06-06 13:00:00 22.8 4 Oeste 15 Oeste 0 965.4 -- 39
2019-06-06 12:00:00 21.5 0 Calma 13 Este 0 965.6 -1.1 45
2019-06-06 11:00:00 19.7 0 Calma 8 Este 0 966.1 -0.8 51
2019-06-06 10:00:00 -- -- -- -- -- -- -- -- --
2019-06-06 09:00:00 14.7 0 Calma 4 Este 0 966.7 0.1 68
2019-06-06 08:00:00 12.4 0 Calma 7 Nordeste 0 966.9 0.5 74
2019-06-06 07:00:00 10.5 0 Calma 6 Nordeste 0 966.8 0.1 75
2019-06-06 06:00:00 11.3 0 Calma 5 Este 0 966.6 -0.4 74
2019-06-06 05:00:00 12.6 0 Calma 12 Nordeste 0 966.4 -0.8 69
2019-06-06 04:00:00 12.9 0 Calma 5 Oeste 0 966.7 -0.8 67
2019-06-06 03:00:00 14.3 0 Calma 3 Sur 0 967 -0.5 65
2019-06-06 02:00:00 14.7 0 Calma 8 Oeste 0 967.2 0.2 64
2019-06-06 01:00:00 15.4 0 Calma 9 Noroeste 0 967.5 1.3 62
2019-06-06 00:00:00 16.2 2 Nordeste 13 Oeste 0 967.5 1.6 60
2019-06-05 23:00:00 18.1 4 Oeste 18 Oeste 0 967 1.4 55
2019-06-05 22:00:00 19.1 4 Noroeste 16 Noroeste 0 966.2 0.5 40
2019-06-05 21:00:00 21.1 10 Noroeste 27 Oeste 0 965.9 0 37
2019-06-05 20:00:00 22.5 12 Noroeste 27 Noroeste 0 965.6 -- 36
2019-06-05 19:00:00 22.4 13 Noroeste 30 Noroeste 0 965.7 -- 37
2019-06-05 18:00:00 23 11 Noroeste 35 Noroeste 0 965.9 -1.1 37
2019-06-05 17:00:00 -- 10 Noroeste -- -- -- -- -- --
2019-06-05 16:00:00 -- -- -- -- -- -- -- -- --
2019-06-05 15:00:00 20.2 14 Noroeste 35 Noroeste 0 967 -0.8 44
2019-06-05 14:00:00 19.7 10 Noroeste -- -- -- 967.5 -0.2 46
2019-06-05 13:00:00 -- -- -- -- -- -- -- -- --
2019-06-05 12:00:00 17.6 17 Noroeste 40 Noroeste 0 967.8 0.5 51
2019-06-05 11:00:00 16.3 15 Noroeste 30 Noroeste 0 967.7 0.8 55
2019-06-05 10:00:00 15.8 17 Noroeste 31 Oeste 0 967.6 1.1 59
2019-06-05 09:00:00 14.7 14 Oeste 30 Oeste 0 967.3 1.7 62
2019-06-05 08:00:00 13.8 13 Noroeste 26 Noroeste 0 966.9 1.8 63
2019-06-05 07:00:00 14.2 2 Oeste 24 Noroeste 0 966.5 1.3 63
2019-06-05 06:00:00 16.1 11 Noroeste 27 Noroeste 0 965.6 0.3 67
2019-06-05 05:00:00 16.9 8 Oeste 19 Oeste 0 965.1 0 71
2019-06-05 04:00:00 17.7 10 Oeste 31 Oeste 0 965.2 0.5 71
2019-06-05 03:00:00 18.2 2 Noroeste 22 Oeste 0 965.3 0.6 74
2019-06-05 02:00:00 18.7 8 Oeste 18 Oeste 0 965.1 1.1 72
2019-06-05 01:00:00 19 3 Sudoeste 21 Oeste 0 964.7 1.2 69
2019-06-05 00:00:00 19.4 9 Oeste 24 Sudoeste 0 964.7 1.9 67
2019-06-04 23:00:00 20.9 8 Oeste 22 Oeste 0 964 1.3 56
2019-06-04 22:00:00 22.8 8 Oeste 23 Oeste 0 963.5 1.1 46
2019-06-04 21:00:00 24.9 8 Oeste 30 Oeste 0 962.8 0.2 44
2019-06-04 20:00:00 28.1 12 Oeste 29 Oeste 0 962.7 0.1 38
2019-06-04 19:00:00 29.3 13 Oeste 42 Oeste 0 962.4 -1.1 36
2019-06-04 18:00:00 30.3 17 Oeste 40 Oeste 0 962.6 -1.6 34
2019-06-04 17:00:00 31 15 Oeste 37 Oeste 0 962.6 -2.4 34
2019-06-04 16:00:00 31 14 Oeste 35 Oeste 0 963.5 -1.9 33
2019-06-04 15:00:00 30.7 11 Oeste 35 Oeste 0 964.2 -1.7 32
2019-06-04 14:00:00 30.4 13 Oeste 31 Oeste 0 965 -1.1 30
2019-06-04 13:00:00 29.7 6 Oeste 22 Oeste 0 965.4 -- 32
2019-06-04 12:00:00 28.1 4 Oeste -- -- -- 965.9 -- 34
2019-06-04 11:00:00 25.7 0 Calma -- -- -- 966.1 0.2 39
2019-06-04 10:00:00 -- -- -- -- -- -- -- -- --
2019-06-04 09:00:00 -- -- -- -- -- -- -- -- --
2019-06-04 08:00:00 14.4 0 Calma 6 Noroeste 0 965.9 -0.3 58
2019-06-04 07:00:00 13.2 0 Calma 0 Calma 0 965.7 -0.9 58
2019-06-04 06:00:00 14.2 0 Calma 6 Oeste 0 965.7 -1.2 56
2019-06-04 05:00:00 15.8 0 Calma 16 Noroeste 0 966.2 -1.2 54
2019-06-04 04:00:00 17 6 Noroeste 15 Noroeste 0 966.6 -1.1 50
2019-06-04 03:00:00 18.2 0 Calma 8 Oeste 0 966.9 -1.2 46
2019-06-04 02:00:00 18.7 5 Oeste 10 Oeste 0 967.4 -0.2 46
2019-06-04 01:00:00 20.5 4 Oeste 12 Sudoeste 0 967.7 0.6 41
2019-06-04 00:00:00 20.9 0 Calma 9 Sur 0 968.1 1.2 39
2019-06-03 23:00:00 22.2 0 Calma 9 Sur 0 967.6 1 35
2019-06-03 22:00:00 24.3 3 Sur 18 Sur 0 967.1 0.4 31
2019-06-03 21:00:00 26.2 5 Sur 24 Sur 0 966.9 -0.2 28
2019-06-03 20:00:00 28.1 15 Sur 30 Sur 0 966.6 -0.8 26
2019-06-03 19:00:00 29.6 14 Sur 35 Sur 0 966.7 -1.1 26
2019-06-03 18:00:00 30.1 15 Sudeste 35 Sudeste 0 967.1 -1.5 24
2019-06-03 17:00:00 30.7 18 Sudeste 30 Sur 0 967.4 -- 24
2019-06-03 16:00:00 31 14 Sudeste 28 Sudeste 0 967.8 -- 26
2019-06-03 15:00:00 30.6 9 Sur -- -- -- 968.6 -0.9 28
2019-06-03 14:00:00 -- -- -- -- -- -- -- -- --
2019-06-03 13:00:00 -- -- -- -- -- -- -- -- --
2019-06-03 12:00:00 27.1 11 Sudeste 26 Sudeste 0 969.5 -0.2 34
2019-06-03 11:00:00 25.6 6 Sur -- -- -- 969.6 -0.2 37
2019-06-03 10:00:00 -- -- -- -- -- -- -- -- --
2019-06-03 09:00:00 19.1 0 Calma 5 Este 0 969.7 0.2 47
2019-06-03 08:00:00 15 0 Calma 4 Nordeste 0 969.8 0.1 51
2019-06-03 07:00:00 15.5 0 Calma 3 Nordeste 0 969.7 -0.1 46
2019-06-03 06:00:00 16.7 0 Calma 8 Noroeste 0 969.5 -0.4 44
2019-06-03 05:00:00 18.1 0 Calma 9 Sudoeste 0 969.7 -0.5 41
2019-06-03 04:00:00 18.7 3 Noroeste 13 Noroeste 0 969.8 -0.5 39
2019-06-03 03:00:00 18.8 5 Nordeste 12 Noroeste 0 969.9 -0.6 39
2019-06-03 02:00:00 18.9 0 Calma 10 Sur 0 970.2 -0.1 40
2019-06-03 01:00:00 19.8 3 Este 14 Este 0 970.3 0.8 40
2019-06-03 00:00:00 19.7 0 Calma 6 Sudoeste 0 970.5 1.5 40
2019-06-02 23:00:00 20.3 0 Calma 12 Sur 0 970.3 1.9 39
2019-06-02 22:00:00 21.6 3 Sudoeste 12 Sudoeste 0 969.5 1.1 36
2019-06-02 21:00:00 24.1 4 Sur 36 Sudeste 0 969 0 32
2019-06-02 20:00:00 25.7 18 Sudeste 34 Sudeste 0 968.4 -0.8 29
2019-06-02 19:00:00 26.4 16 Sudeste 39 Sudeste 0 968.4 -0.9 29
2019-06-02 18:00:00 27 17 Sudeste 34 Sudeste 0 969 -0.8 29
2019-06-02 17:00:00 27.7 12 Sudeste 37 Este 0 969.2 -1.4 29
2019-06-02 16:00:00 28.1 17 Sudeste 33 Sudeste 0 969.3 -1.7 32
2019-06-02 15:00:00 27.2 13 Sur 30 Sur 0 969.8 -1.4 33
2019-06-02 14:00:00 26.4 18 Sudeste 36 Sudeste 0 970.6 -0.5 33
2019-06-02 13:00:00 26 14 Sudeste 35 Sudeste 0 971 0.2 34
2019-06-02 12:00:00 23.9 17 Sudeste 35 Sudeste 0 971.2 0.4 38
2019-06-02 11:00:00 23.2 17 Sudeste 37 Sur 0 971.1 0.5 38
2019-06-02 10:00:00 22 17 Sudeste 36 Sur 0 970.8 0.4 39
2019-06-02 09:00:00 20.9 16 Sudeste 37 Sudeste 0 970.8 0.5 41
2019-06-02 08:00:00 19.6 12 Sudeste 31 Sur 0 970.6 0.2 44
2019-06-02 07:00:00 18.9 15 Sur 37 Sudeste 0 970.4 -0.2 45
2019-06-02 06:00:00 18.5 11 Sudeste 31 Sudeste 0 970.3 -0.9 47
2019-06-02 05:00:00 18.4 14 Sudeste 33 Sur 0 970.4 -1.2 47
2019-06-02 04:00:00 18.5 16 Sur 36 Sudeste 0 970.6 -0.7 47
2019-06-02 03:00:00 18.4 10 Sur 36 Sudeste 0 971.2 -0.1 48
2019-06-02 02:00:00 18.4 17 Sudeste 40 Sur 0 971.6 0.9 47
2019-06-02 01:00:00 18.8 17 Sur 35 Sur 0 971.3 1.2 45
2019-06-02 00:00:00 19.2 22 Sudeste 47 Sudeste 0 971.3 1.5 44
2019-06-01 23:00:00 19.4 21 Sudeste 44 Sudeste 0 970.7 1.2 43
2019-06-01 22:00:00 20.5 13 Sur 36 Sur 0 970.1 0.4 41
2019-06-01 21:00:00 21.7 11 Sur 37 Sur 0 969.8 -0.2 39
2019-06-01 20:00:00 23.1 17 Sur 42 Sudeste 0 969.5 -0.7 38
2019-06-01 19:00:00 23.3 22 Sur 38 Sur 0 969.7 -0.9 38
2019-06-01 18:00:00 23.9 20 Sur 45 Sudeste 0 970 -1.1 38
2019-06-01 17:00:00 24.2 25 Sur 49 Sur 0 970.2 -1.3 38
2019-06-01 16:00:00 24.6 21 Sudeste 44 Sudeste 0 970.6 -1.5 36
2019-06-01 15:00:00 25.1 18 Sur 41 Sur 0 971.1 -1.1 35
2019-06-01 14:00:00 24.9 20 Sur 51 Sur 0 971.5 -0.6 35
2019-06-01 13:00:00 23.6 22 Sudeste 46 Sudeste 0 972.1 -0.1 39
2019-06-01 12:00:00 23.2 19 Sudeste 41 Sudeste 0 972.2 0.2 43
2019-06-01 11:00:00 21.3 22 Sudeste 36 Sudeste 0 972.1 0.3 49
2019-06-01 10:00:00 20.1 18 Sudeste 38 Sudeste 0 972.2 0.8 52
2019-06-01 09:00:00 18.7 13 Sudeste 29 Sur 0 972 0.3 57
2019-06-01 08:00:00 17.1 12 Sudeste 36 Sur 0 971.8 0.2 64
2019-06-01 07:00:00 16.2 16 Sur 33 Sur 0 971.4 -0.1 71
2019-06-01 06:00:00 16.2 2 Este 32 Sudeste 0 971.7 -0.2 74
2019-06-01 05:00:00 16.5 14 Sur 33 Sudeste 0 971.6 -0.6 71
2019-06-01 04:00:00 17 14 Sudeste 32 Sudeste 0 971.5 -0.3 70
2019-06-01 03:00:00 17.3 8 Sur 28 Este 0 971.9 0.2 69
2019-06-01 02:00:00 17.9 10 Sur 33 Sudoeste 0 972.2 1 67
2019-06-01 01:00:00 18.3 16 Sur 47 Sur 0 971.8 1 63
2019-06-01 00:00:00 19.9 14 Sur 40 Sur 0 971.7 1.3 53
2019-05-31 23:00:00 19.7 17 Sur 44 Sur 0 971.2 1 51
2019-05-31 22:00:00 20.9 17 Sur 44 Sur 0 970.8 0.8 47
2019-05-31 21:00:00 21.3 21 Sur 52 Sur 0 970.4 0 46
2019-05-31 20:00:00 23 23 Sudeste 55 Sudeste 0 970.2 -0.5 42
2019-05-31 19:00:00 23.8 29 Sudeste 56 Sudeste 0 970 -1.5 40
2019-05-31 18:00:00 24.9 28 Sur 58 Sur 0 970.4 -1.6 39
2019-05-31 17:00:00 25.5 25 Sudeste 60 Sudeste 0 970.7 -2 40
2019-05-31 16:00:00 24.4 30 Sudeste 52 Sudeste 0 971.5 -1.5 43
2019-05-31 15:00:00 24.3 23 Sur 50 Sudeste 0 972 -1 41
2019-05-31 14:00:00 24.1 18 Sudeste -- -- -- 972.7 -0.4 41
2019-05-31 13:00:00 23 15 Sudeste 39 Sudeste 0 973 -0.1 44
2019-05-31 12:00:00 22.3 14 Sudeste 39 Sur 0 973 -0.3 50
2019-05-31 11:00:00 20.6 16 Sudeste 37 Sur 0 973.1 -0.1 56
2019-05-31 10:00:00 18.2 21 Sudeste 35 Sudeste 0 973.1 0.4 63
2019-05-31 09:00:00 16.8 16 Sur 30 Sur 0 973.3 0.9 71
2019-05-31 08:00:00 15.1 13 Sur 24 Sudeste 0 973.2 0.4 79
2019-05-31 07:00:00 14.5 11 Sur 31 Sur 0 972.7 -0.6 81
2019-05-31 06:00:00 14.7 12 Sur 34 Sur 0 972.4 -1 81
2019-05-31 05:00:00 15.6 17 Sur 32 Sur 0 972.8 -0.8 75
2019-05-31 04:00:00 16.2 2 Noroeste 24 Sur 0 973.3 -0.3 70
2019-05-31 03:00:00 17.1 5 Sudeste 21 Sudeste 0 973.4 -0.6 62
2019-05-31 02:00:00 17.6 5 Oeste 18 Sudoeste 0 973.6 -0.3 56
2019-05-31 01:00:00 17.7 9 Sur 41 Sur 0 973.6 0.6 53
2019-05-31 00:00:00 18.4 15 Sur 42 Sur 0 974 1.6 50
2019-05-30 23:00:00 17.6 21 Sur 49 Sur 0 973.9 1.4 52
2019-05-30 22:00:00 18.1 27 Sur 54 Sur 0 973 0.6 53
2019-05-30 21:00:00 18.6 19 Sur 47 Sur 0 972.4 -0.2 56
2019-05-30 20:00:00 19.9 23 Sur 44 Sur 0 972.5 -0.7 52
2019-05-30 19:00:00 20.7 24 Sudeste 50 Sudeste 0 972.4 -0.6 50
2019-05-30 18:00:00 21.3 24 Sudeste 48 Sudeste 0 972.6 -0.5 47
2019-05-30 17:00:00 22.2 23 Sur 52 Sur 0 973.2 -0.4 47
2019-05-30 16:00:00 22.1 29 Sudeste 55 Sudeste 0 973 -1 47
2019-05-30 15:00:00 22.3 26 Sur 46 Sudeste 0 973.1 -1.2 47
2019-05-30 14:00:00 21.7 24 Sudeste 48 Sudeste 0 973.6 -0.5 51
2019-05-30 13:00:00 21.5 26 Sudeste 49 Sur 0 974 -0.1 53
2019-05-30 12:00:00 20.3 19 Sur 48 Sur 0 974.3 0.5 60
2019-05-30 11:00:00 19.5 24 Sudeste 46 Sudeste 0 974.1 0.7 63
2019-05-30 10:00:00 18.6 9 Sudeste 28 Sur 0 974.1 1.2 67
2019-05-30 09:00:00 16.7 7 Sudeste 27 Sur 0 973.8 1.4 74
2019-05-30 08:00:00 16 11 Sudeste 36 Sudeste 0 973.4 1 73
2019-05-30 07:00:00 15.8 19 Sur 43 Sur 0 972.9 0.4 72
2019-05-30 06:00:00 15.6 26 Sudeste 48 Sudeste 0 972.4 -0.4 76
2019-05-30 05:00:00 15.5 21 Sur 47 Sur 0 972.4 -0.5 77
2019-05-30 04:00:00 16 23 Sur 44 Sudeste 0 972.5 -0.3 76
2019-05-30 03:00:00 15.8 21 Sur 41 Sudeste 0 972.8 0.1 84
2019-05-30 02:00:00 15.7 21 Sudeste 44 Sur 0 972.9 1 82
2019-05-30 01:00:00 16.4 18 Sudeste 37 Sudeste 0 972.8 1.9 74
2019-05-30 00:00:00 16.8 14 Sudeste 41 Sudeste 0 972.7 2.7 67
2019-05-29 23:00:00 17.3 15 Sur 36 Sur 0 971.9 2.6 61
2019-05-29 22:00:00 18.8 12 Sur 34 Sur 0 970.9 1.7 55
2019-05-29 21:00:00 21 13 Sudeste 29 Sur 0 970 0.6 51
2019-05-29 20:00:00 23.2 15 Sur 34 Sudeste 0 969.3 -0.4 45
2019-05-29 19:00:00 24.6 18 Sudeste 33 Sur 0 969.2 -0.9 43
2019-05-29 18:00:00 25.5 17 Sudeste 33 Sudeste 0 969.4 -0.8 40
2019-05-29 17:00:00 25.8 16 Sudeste 35 Sudeste 0 969.7 -0.8 39
2019-05-29 16:00:00 25.6 17 Sudeste 40 Sudeste 0 970.1 -0.8 39
2019-05-29 15:00:00 25.2 22 Sudeste 41 Sudeste 0 970.2 -0.4 39
2019-05-29 14:00:00 24.1 18 Sur 40 Sudeste 0 970.5 -0.1 41
2019-05-29 13:00:00 23.6 21 Sur 44 Sudeste 0 970.9 0.7 45
2019-05-29 12:00:00 22.7 25 Sur 48 Sur 0 970.6 0.8 49
2019-05-29 11:00:00 21.5 24 Sur 45 Sur 0 970.6 1.5 62
2019-05-29 10:00:00 20.4 18 Sudeste 40 Sur 0 970.2 1.8 70
2019-05-29 09:00:00 19.3 15 Sur 32 Sur 0 969.8 1.9 75
2019-05-29 08:00:00 17.9 15 Sur 33 Sudeste 0 969.1 1.4 81
2019-05-29 07:00:00 17.6 14 Sudeste 36 Sur 0 968.4 1.1 76
2019-05-29 06:00:00 18.3 10 Sur 31 Sudeste 0 967.9 0.8 69
2019-05-29 05:00:00 18.3 5 Sur 28 Sudeste 0 967.7 0.7 69
2019-05-29 04:00:00 18.4 0 Calma 15 Sur 0 967.3 0.6 67
2019-05-29 03:00:00 18.8 0 Calma 8 Norte 0 967.1 0.9 68
2019-05-29 02:00:00 19.6 0 Calma 7 Nordeste 0 967 1.5 64
2019-05-29 01:00:00 21.2 0 Calma 7 Noroeste 0 966.7 1.9 61
2019-05-29 00:00:00 22.2 2 Oeste 8 Oeste 0 966.2 1.8 57
2019-05-28 23:00:00 24.3 0 Calma 8 Sudoeste 0 965.5 1.5 50
2019-05-28 22:00:00 26.1 0 Calma 11 Sur 0 964.8 1 46
2019-05-28 21:00:00 28.9 2 Sur 17 Oeste 0 964.4 0.5 38
2019-05-28 20:00:00 32.2 6 Noroeste 22 Oeste 0 964 0 31
2019-05-28 19:00:00 32.4 5 Oeste 23 Oeste 0 963.8 -0.2 29
2019-05-28 18:00:00 32.7 5 Noroeste 28 Noroeste 0 963.9 -0.1 28
2019-05-28 17:00:00 32.5 10 Noroeste 27 Oeste 0 964 -0.2 28
2019-05-28 16:00:00 32.3 4 Noroeste 26 Noroeste 0 964 -0.2 29
2019-05-28 15:00:00 32.4 9 Noroeste 29 Noroeste 0 964 -0.3 29
2019-05-28 14:00:00 31.6 4 Oeste 22 Norte 0 964.2 -0.1 31
2019-05-28 13:00:00 31.1 8 Oeste 23 Noroeste 0 964.2 -0.2 31
2019-05-28 12:00:00 29.5 0 Calma 9 Sudoeste 0 964.3 0.1 39
2019-05-28 11:00:00 27.3 0 Calma 8 Este 0 964.3 0.4 44
2019-05-28 10:00:00 23.4 0 Calma 8 Este 0 964.4 0.8 51
2019-05-28 09:00:00 20.7 0 Calma 4 Oeste 0 964.2 0.8 56
2019-05-28 08:00:00 17 0 Calma 7 Nordeste 0 963.9 0.4 62
2019-05-28 07:00:00 16.4 0 Calma 7 Noroeste 0 963.6 -0.2 61
2019-05-28 06:00:00 16.5 0 Calma 6 Nordeste 0 963.4 -0.4 59
2019-05-28 05:00:00 17.9 0 Calma 0 Calma 0 963.5 -0.7 55
2019-05-28 04:00:00 19.4 0 Calma 2 Norte 0 963.8 -0.3 49
2019-05-28 03:00:00 21.5 0 Calma 5 Nordeste 0 963.8 -0.6 45
2019-05-28 02:00:00 22.5 0 Calma 5 Este 0 964.2 0.1 43
2019-05-28 01:00:00 23.1 0 Calma 9 Oeste 0 964.1 0.6 41
2019-05-28 00:00:00 23.9 0 Calma 9 Sudoeste 0 964.4 1.5 42
2019-05-27 23:00:00 24.9 0 Calma 9 Sudoeste 0 964.1 1.5 41
2019-05-27 22:00:00 25.9 0 Calma 12 Sur 0 963.5 0.8 38
2019-05-27 21:00:00 29 0 Calma 14 Noroeste 0 962.9 -0.2 31
2019-05-27 20:00:00 31.8 2 Oeste 17 Oeste 0 962.6 -1 27
2019-05-27 19:00:00 32 3 Noroeste 16 Oeste 0 962.7 -1.4 27
2019-05-27 18:00:00 31.5 9 Noroeste 24 Noroeste 0 963.1 -1.5 27
2019-05-27 17:00:00 31.4 7 Oeste 24 Noroeste 0 963.6 -1.6 28
2019-05-27 16:00:00 30.8 3 Norte 19 Nordeste 0 964.1 -1.7 29
2019-05-27 15:00:00 29.8 0 Calma 21 Noroeste 0 964.6 -1.6 29
2019-05-27 14:00:00 29.6 6 Noroeste 23 Noroeste 0 965.2 -1.2 32
2019-05-27 13:00:00 27.8 4 Nordeste 12 Nordeste 0 965.8 -0.7 35
2019-05-27 12:00:00 26.9 2 Noroeste 13 Noroeste 0 966.2 0 41
2019-05-27 11:00:00 24.8 2 Este 9 Este 0 966.4 0.1 47
2019-05-27 10:00:00 20.4 0 Calma 7 Este 0 966.5 0.4 59
2019-05-27 09:00:00 16.4 0 Calma 3 Oeste 0 966.2 0.3 68
2019-05-27 08:00:00 13.8 0 Calma 0 Calma 0 966.3 0.2 73
2019-05-27 07:00:00 12.9 0 Calma -- -- 0 966.1 -0.4 73
2019-05-27 06:00:00 13.5 0 Calma -- -- 0 965.9 -1 71
2019-05-27 05:00:00 14.4 0 Calma -- -- 0 966.1 -1 68
2019-05-27 04:00:00 15.7 0 Calma -- -- 0 966.5 -0.7 64
2019-05-27 03:00:00 16.7 0 Calma 4 Oeste 0 966.9 -0.5 61
2019-05-27 02:00:00 17.5 0 Calma 7 Oeste 0 967.1 0.1 59
2019-05-27 01:00:00 18.5 0 Calma 6 Noroeste 0 967.2 0.9 56
2019-05-27 00:00:00 19.3 0 Calma 10 Sur 0 967.4 1.4 53